Time;durP1;ratioP1;P1;durP2;ratioP2;P2;SDS_P1;SDS_P2;PMS_P1;PMS_P2;Temp;Humidity;BMP_temperature;BMP_pressure;BME280_temperature;BME280_humidity;BME280_pressure;Samples;Min_cycle;Max_cycle;Signal;HPM_P1;HPM_P2
2022/01/04 00:00:08;;;;;;;4.88;3.47;;;;;;;11.44;100.00;98293.19;5085763;28;20239;-77
2022/01/04 00:02:35;;;;;;;3.90;3.50;;;;;;;11.57;100.00;98281.38;5096346;28;20180;-77
2022/01/04 00:05:02;;;;;;;3.97;3.30;;;;;;;11.58;100.00;98267.78;5088502;28;20275;-77
2022/01/04 00:07:29;;;;;;;4.40;3.78;;;;;;;11.66;100.00;98264.44;5087035;28;20225;-77
2022/01/04 00:09:55;;;;;;;4.50;3.67;;;;;;;11.62;100.00;98253.06;5083373;28;20190;-77
2022/01/04 00:15:08;;;;;;;3.75;3.45;;;;;;;11.66;100.00;98248.25;5083029;28;20196;-76
2022/01/04 00:17:35;;;;;;;4.80;4.10;;;;;;;11.67;100.00;98236.50;5085856;28;20283;-77
2022/01/04 00:20:02;;;;;;;8.98;4.90;;;;;;;11.58;100.00;98229.19;5078170;28;20281;-77
2022/01/04 00:22:29;;;;;;;4.85;4.45;;;;;;;11.59;100.00;98237.13;5075329;28;20193;-77
2022/01/04 00:24:55;;;;;;;8.15;4.90;;;;;;;11.64;100.00;98221.41;5088026;28;20196;-77
2022/01/04 00:27:22;;;;;;;5.22;4.65;;;;;;;11.63;100.00;98216.19;5078603;28;20200;-77
2022/01/04 00:29:49;;;;;;;7.30;4.97;;;;;;;11.74;100.00;98212.56;5087038;28;20291;-77
2022/01/04 00:32:17;;;;;;;6.20;5.53;;;;;;;11.72;100.00;98201.91;5082322;28;20649;-77
2022/01/04 00:34:44;;;;;;;5.85;4.97;;;;;;;11.62;100.00;98196.47;5076048;28;20190;-77
2022/01/04 00:37:10;;;;;;;6.40;5.78;;;;;;;11.77;100.00;98182.66;5083459;28;20275;-77
2022/01/04 00:39:37;;;;;;;7.25;6.55;;;;;;;11.80;100.00;98177.84;5090944;28;20283;-77
2022/01/04 00:42:05;;;;;;;6.07;5.47;;;;;;;11.85;100.00;98172.06;5095249;28;20311;-77
2022/01/04 00:44:31;;;;;;;7.15;6.00;;;;;;;11.78;100.00;98176.25;5090414;28;20227;-77
2022/01/04 00:46:59;;;;;;;6.30;5.70;;;;;;;11.72;100.00;98161.47;5080449;28;20272;-76
2022/01/04 00:49:26;;;;;;;7.05;5.40;;;;;;;11.55;100.00;98144.03;5080926;28;20181;-77
2022/01/04 00:51:54;;;;;;;7.20;5.55;;;;;;;11.66;100.00;98154.75;5109643;28;20189;-78
2022/01/04 00:54:22;;;;;;;5.78;5.18;;;;;;;11.54;100.00;98149.56;5114713;28;20253;-79
2022/01/04 00:56:49;;;;;;;6.63;5.82;;;;;;;11.63;100.00;98138.00;5114175;28;20205;-79
2022/01/04 00:59:17;;;;;;;6.15;5.55;;;;;;;11.64;100.00;98126.22;5107692;28;20265;-78
2022/01/04 01:01:43;;;;;;;6.93;5.38;;;;;;;11.67;100.00;98126.81;5095796;28;20599;-78
2022/01/04 01:04:11;;;;;;;6.65;5.90;;;;;;;11.78;100.00;98112.41;5102027;28;20209;-79
2022/01/04 01:06:39;;;;;;;8.30;5.57;;;;;;;11.76;100.00;98106.31;5106517;28;20193;-78
2022/01/04 01:09:06;;;;;;;6.20;5.60;;;;;;;11.66;100.00;98102.69;5111619;28;20189;-78
2022/01/04 01:11:33;;;;;;;6.88;5.82;;;;;;;11.61;100.00;98103.06;5111408;28;20292;-78
2022/01/04 01:14:00;;;;;;;5.90;5.30;;;;;;;11.63;100.00;98092.16;5105761;28;20269;-76
2022/01/04 01:16:26;;;;;;;5.95;5.45;;;;;;;11.55;100.00;98095.50;5090289;28;20212;-79
2022/01/04 01:18:53;;;;;;;5.45;4.95;;;;;;;11.66;100.00;98103.53;5103415;28;20185;-79
2022/01/04 01:21:20;;;;;;;6.47;5.63;;;;;;;11.59;100.00;98096.97;5104916;28;20276;-79
2022/01/04 01:23:49;;;;;;;6.50;5.75;;;;;;;11.44;100.00;98082.97;5110191;28;20248;-79
2022/01/04 01:26:16;;;;;;;9.35;5.68;;;;;;;11.45;100.00;98090.06;5114423;28;20215;-79
2022/01/04 01:28:43;;;;;;;10.32;6.68;;;;;;;11.42;100.00;98084.94;5100759;28;20253;-79
2022/01/04 01:31:11;;;;;;;7.60;6.50;;;;;;;11.50;100.00;98086.13;5113179;28;20215;-79
2022/01/04 01:33:38;;;;;;;6.88;5.88;;;;;;;11.36;100.00;98085.47;5113270;28;20220;-79
2022/01/04 01:36:05;;;;;;;6.72;6.00;;;;;;;11.45;100.00;98063.09;5111769;28;20208;-79
2022/01/04 01:38:32;;;;;;;6.80;6.30;;;;;;;11.46;100.00;98074.75;5099959;28;20220;-78
2022/01/04 01:41:00;;;;;;;6.85;5.97;;;;;;;11.51;100.00;98075.22;5111177;28;20220;-79
2022/01/04 01:43:29;;;;;;;6.55;5.75;;;;;;;11.59;100.00;98071.84;5107192;28;20190;-79
2022/01/04 01:45:56;;;;;;;6.75;6.05;;;;;;;11.38;100.00;98067.31;5105700;28;20218;-78
2022/01/04 01:48:23;;;;;;;5.90;5.38;;;;;;;11.32;100.00;98065.16;5109192;28;20260;-78
2022/01/04 01:50:50;;;;;;;6.30;5.65;;;;;;;11.36;100.00;98063.06;5109971;28;20228;-78
2022/01/04 01:53:17;;;;;;;7.80;6.30;;;;;;;11.41;100.00;98061.66;5108907;28;20213;-78
2022/01/04 01:55:44;;;;;;;6.32;5.72;;;;;;;11.38;100.00;98056.53;5110951;28;20180;-79
2022/01/04 01:58:12;;;;;;;5.63;5.10;;;;;;;11.36;100.00;98052.28;5106196;28;20208;-78
2022/01/04 02:00:39;;;;;;;6.88;6.18;;;;;;;11.15;100.00;98038.81;5091529;28;20233;-78
2022/01/04 02:03:06;;;;;;;7.75;5.57;;;;;;;11.29;100.00;98043.03;5091901;28;20295;-78
2022/01/04 02:05:33;;;;;;;6.93;5.57;;;;;;;11.31;100.00;98031.13;5108723;28;20200;-78
2022/01/04 02:08:03;;;;;;;6.47;5.22;;;;;;;11.29;100.00;98029.53;5102297;28;20193;-78
2022/01/04 02:10:30;;;;;;;6.20;5.60;;;;;;;11.21;100.00;98017.56;5108848;28;20275;-78
2022/01/04 02:12:57;;;;;;;6.80;6.10;;;;;;;11.19;100.00;98024.06;5109421;28;20267;-78
2022/01/04 02:15:26;;;;;;;5.38;4.88;;;;;;;11.29;100.00;98013.38;5094753;28;20193;-78
2022/01/04 02:17:53;;;;;;;6.03;5.43;;;;;;;11.18;100.00;98000.84;5091810;28;20224;-78
2022/01/04 02:20:21;;;;;;;9.30;6.15;;;;;;;11.27;100.00;97983.88;5098156;28;20291;-78
2022/01/04 02:22:48;;;;;;;5.60;5.10;;;;;;;11.23;100.00;97985.97;5090918;28;20193;-77
2022/01/04 02:25:15;;;;;;;5.40;4.90;;;;;;;11.36;100.00;97979.53;5103867;28;20252;-78
2022/01/04 02:27:43;;;;;;;6.10;4.57;;;;;;;11.31;100.00;97974.53;5107964;28;20197;-77
2022/01/04 02:30:14;;;;;;;6.72;4.90;;;;;;;11.32;100.00;97973.53;5093466;28;20220;-77
2022/01/04 02:32:41;;;;;;;5.47;4.93;;;;;;;11.32;100.00;97973.53;5087943;28;20189;-78
2022/01/04 02:35:08;;;;;;;5.72;5.00;;;;;;;11.22;100.00;97960.03;5100648;28;20275;-77
2022/01/04 02:37:36;;;;;;;5.82;5.25;;;;;;;11.27;100.00;97957.78;5093086;28;20208;-78
2022/01/04 02:40:04;;;;;;;6.90;5.10;;;;;;;11.25;100.00;97959.75;5093242;28;20667;-77
2022/01/04 02:42:31;;;;;;;5.85;5.25;;;;;;;11.20;100.00;97950.38;5084086;28;20182;-79
2022/01/04 02:45:00;;;;;;;6.85;5.57;;;;;;;11.28;100.00;97950.53;5095725;28;20300;-78
2022/01/04 02:47:27;;;;;;;6.38;5.75;;;;;;;11.29;100.00;97948.72;5082284;28;20226;-77
2022/01/04 02:49:54;;;;;;;6.35;5.75;;;;;;;11.23;100.00;97933.94;5083988;28;20284;-77
2022/01/04 02:52:20;;;;;;;6.05;5.05;;;;;;;11.22;100.00;97932.25;5084005;28;20250;-75
2022/01/04 02:54:48;;;;;;;6.97;5.50;;;;;;;11.24;100.00;97935.66;5084663;28;20261;-75
2022/01/04 02:57:15;;;;;;;5.72;5.05;;;;;;;11.17;100.00;97926.38;5093481;28;20267;-75
2022/01/04 02:59:42;;;;;;;6.50;5.20;;;;;;;11.18;100.00;97910.09;5084105;28;20702;-76
2022/01/04 03:02:08;;;;;;;5.82;5.22;;;;;;;11.16;100.00;97913.91;5072977;28;20264;-76
2022/01/04 03:04:35;;;;;;;6.07;5.47;;;;;;;11.21;100.00;97906.28;5083990;28;20271;-74
2022/01/04 03:07:02;;;;;;;6.03;5.50;;;;;;;11.18;100.00;97898.47;5083330;28;20180;-76
2022/01/04 03:09:29;;;;;;;6.50;5.90;;;;;;;11.23;100.00;97888.97;5087610;28;20199;-74
2022/01/04 03:11:57;;;;;;;6.07;5.57;;;;;;;11.21;100.00;97877.47;5076995;28;20296;-75
2022/01/04 03:14:24;;;;;;;5.68;5.18;;;;;;;11.26;100.00;97877.06;5085031;28;20314;-75
2022/01/04 03:16:50;;;;;;;5.70;5.10;;;;;;;11.20;100.00;97874.94;5079563;28;20277;-75
2022/01/04 03:19:17;;;;;;;5.82;5.22;;;;;;;11.24;100.00;97862.91;5084059;28;20539;-74
2022/01/04 03:21:45;;;;;;;5.13;4.68;;;;;;;11.26;100.00;97859.09;5097078;28;20200;-74
2022/01/04 03:24:15;;;;;;;6.50;4.80;;;;;;;11.14;100.00;97853.94;5090253;28;20197;-74
2022/01/04 03:26:42;;;;;;;5.10;4.60;;;;;;;11.23;100.00;97842.34;5076592;28;20224;-76
2022/01/04 03:29:13;;;;;;;5.30;4.80;;;;;;;11.36;100.00;97847.50;5082389;28;20203;-74
2022/01/04 03:31:40;;;;;;;4.82;4.30;;;;;;;11.27;100.00;97843.78;5089731;28;20228;-74
2022/01/04 03:34:07;;;;;;;6.05;4.05;;;;;;;11.23;100.00;97845.03;5076752;28;20254;-74
2022/01/04 03:36:34;;;;;;;5.20;4.70;;;;;;;11.17;100.00;97837.50;5080562;28;20304;-73
2022/01/04 03:39:04;;;;;;;4.70;4.30;;;;;;;11.15;100.00;97828.72;5084773;28;20203;-74
2022/01/04 03:41:32;;;;;;;4.38;3.88;;;;;;;11.24;100.00;97834.13;5076088;28;20215;-75
2022/01/04 03:43:59;;;;;;;3.97;3.58;;;;;;;11.05;100.00;97818.72;5083063;28;20195;-74
2022/01/04 03:46:27;;;;;;;5.47;4.22;;;;;;;11.09;100.00;97824.72;5096858;28;20201;-74
2022/01/04 03:48:54;;;;;;;5.20;3.90;;;;;;;11.07;100.00;97821.28;5095714;28;20224;-74
2022/01/04 03:51:20;;;;;;;6.63;4.78;;;;;;;11.05;100.00;97820.56;5083395;28;20189;-75
2022/01/04 03:53:47;;;;;;;5.35;4.85;;;;;;;11.16;100.00;97807.00;5076313;28;20221;-75
2022/01/04 03:56:14;;;;;;;9.52;5.53;;;;;;;11.11;100.00;97803.03;5088561;28;20276;-74
2022/01/04 03:58:41;;;;;;;4.53;4.10;;;;;;;10.92;100.00;97799.28;5094375;28;20209;-74
2022/01/04 04:01:08;;;;;;;4.60;4.20;;;;;;;10.96;100.00;97791.78;5076684;28;20188;-74
2022/01/04 04:03:36;;;;;;;5.05;4.45;;;;;;;10.84;100.00;97780.25;5093963;28;20224;-74
2022/01/04 04:06:03;;;;;;;5.93;4.00;;;;;;;10.97;100.00;97783.56;5096345;28;20180;-74
2022/01/04 04:08:30;;;;;;;4.82;4.32;;;;;;;11.03;100.00;97771.38;5087276;28;20212;-74
2022/01/04 04:10:57;;;;;;;3.95;3.65;;;;;;;11.09;100.00;97765.47;5086091;28;20259;-74
2022/01/04 04:13:23;;;;;;;4.00;3.65;;;;;;;11.10;100.00;97751.00;5075729;28;20276;-74
2022/01/04 04:15:50;;;;;;;4.15;3.85;;;;;;;10.98;100.00;97746.72;5075269;28;20630;-75
2022/01/04 04:18:17;;;;;;;3.63;3.33;;;;;;;11.03;100.00;97742.63;5076167;28;20272;-74
2022/01/04 04:20:46;;;;;;;4.22;3.80;;;;;;;11.00;100.00;97736.66;5075729;28;20190;-74
2022/01/04 04:23:12;;;;;;;5.18;4.25;;;;;;;10.83;100.00;97730.94;5075551;28;20240;-74
2022/01/04 04:25:39;;;;;;;4.20;3.85;;;;;;;10.96;100.00;97727.16;5093911;28;20192;-74
2022/01/04 04:28:06;;;;;;;3.88;3.28;;;;;;;11.04;100.00;97728.16;5055205;28;20284;-74
2022/01/04 04:30:33;;;;;;;3.42;3.13;;;;;;;11.02;100.00;97716.69;5085038;28;20669;-74
2022/01/04 04:32:59;;;;;;;2.58;2.38;;;;;;;10.96;100.00;97716.38;5087259;28;20213;-76
2022/01/04 04:35:26;;;;;;;3.67;2.47;;;;;;;10.96;100.00;97708.31;5076044;28;20308;-74
2022/01/04 04:37:54;;;;;;;4.15;3.00;;;;;;;10.97;100.00;97705.47;5083130;28;20271;-74
2022/01/04 04:40:21;;;;;;;3.00;2.80;;;;;;;11.01;100.00;97701.53;5066069;28;20277;-74
2022/01/04 04:42:48;;;;;;;2.70;2.30;;;;;;;11.05;100.00;97707.47;5068706;28;20661;-74
2022/01/04 04:45:15;;;;;;;3.30;2.72;;;;;;;11.10;100.00;97698.97;5060099;28;20186;-74
2022/01/04 04:47:41;;;;;;;3.33;3.03;;;;;;;11.07;100.00;97700.09;5073400;28;20221;-76
2022/01/04 04:50:09;;;;;;;2.65;2.45;;;;;;;10.94;100.00;97694.97;5075576;28;20526;-76
2022/01/04 04:52:36;;;;;;;2.35;2.15;;;;;;;11.03;100.00;97688.78;5074875;28;20196;-76
2022/01/04 04:55:05;;;;;;;3.53;2.35;;;;;;;11.09;100.00;97668.50;5074658;28;20220;-76
2022/01/04 04:57:32;;;;;;;2.15;1.95;;;;;;;11.04;100.00;97677.00;5081018;28;20260;-76
2022/01/04 04:59:59;;;;;;;2.55;2.35;;;;;;;10.97;100.00;97675.03;5095282;28;20228;-76
2022/01/04 05:02:25;;;;;;;2.72;2.45;;;;;;;11.04;100.00;97673.47;5086473;28;20189;-76
2022/01/04 05:04:52;;;;;;;2.08;1.83;;;;;;;11.03;100.00;97660.97;5074469;28;20192;-76
2022/01/04 05:07:19;;;;;;;2.72;2.53;;;;;;;11.17;100.00;97659.72;5079707;28;20184;-76
2022/01/04 05:09:45;;;;;;;3.13;2.58;;;;;;;11.14;100.00;97655.47;5091187;28;20538;-76
2022/01/04 05:12:13;;;;;;;3.67;2.50;;;;;;;11.03;100.00;97659.16;5094348;28;20281;-76
2022/01/04 05:14:45;;;;;;;3.47;3.17;;;;;;;11.12;100.00;97635.91;5094825;28;20235;-76
2022/01/04 05:17:13;;;;;;;2.95;2.50;;;;;;;11.02;100.00;97641.28;5081390;28;20189;-76
2022/01/04 05:19:40;;;;;;;4.75;2.90;;;;;;;11.03;100.00;97637.63;5085133;28;20197;-76
2022/01/04 05:22:07;;;;;;;3.28;2.97;;;;;;;11.15;100.00;97629.41;5095033;28;20200;-76
2022/01/04 05:24:34;;;;;;;3.22;2.92;;;;;;;11.06;100.00;97633.78;5085556;28;20193;-76
2022/01/04 05:27:04;;;;;;;3.33;3.03;;;;;;;11.17;100.00;97622.00;5073824;28;20197;-76
2022/01/04 05:29:32;;;;;;;3.45;2.80;;;;;;;11.14;100.00;97614.22;5077122;28;20196;-76
2022/01/04 05:31:59;;;;;;;3.08;2.88;;;;;;;10.99;100.00;97614.66;5074531;28;20209;-76
2022/01/04 05:34:26;;;;;;;3.95;3.55;;;;;;;11.02;100.00;97625.13;5074495;28;20628;-76
2022/01/04 05:36:53;;;;;;;4.47;4.05;;;;;;;11.01;100.00;97609.97;5074149;28;20204;-76
2022/01/04 05:39:20;;;;;;;3.67;3.38;;;;;;;10.98;100.00;97615.63;5074353;28;20204;-76
2022/01/04 05:41:47;;;;;;;3.83;3.45;;;;;;;10.91;100.00;97613.63;5074481;28;20642;-76
2022/01/04 05:44:13;;;;;;;3.83;3.53;;;;;;;10.98;100.00;97612.09;5074107;28;20626;-76
2022/01/04 05:46:41;;;;;;;4.57;3.97;;;;;;;11.09;100.00;97608.41;5073493;28;20199;-76
2022/01/04 05:49:08;;;;;;;8.05;3.92;;;;;;;11.20;100.00;97600.19;5074046;28;20616;-76
2022/01/04 05:51:35;;;;;;;4.50;3.88;;;;;;;11.10;100.00;97596.63;5073801;28;20210;-76
2022/01/04 05:54:02;;;;;;;5.60;4.00;;;;;;;11.07;100.00;97597.78;5073952;28;20641;-76
2022/01/04 05:56:28;;;;;;;4.57;4.18;;;;;;;11.06;100.00;97585.31;5074176;28;20622;-77
2022/01/04 05:58:55;;;;;;;5.20;4.70;;;;;;;11.11;100.00;97579.50;5073848;28;20645;-76
2022/01/04 06:01:21;;;;;;;4.30;3.90;;;;;;;11.21;100.00;97589.25;5073571;28;20524;-76
2022/01/04 06:03:51;;;;;;;4.30;3.58;;;;;;;11.08;100.00;97575.25;5073682;28;20244;-76
2022/01/04 06:06:18;;;;;;;4.68;3.95;;;;;;;11.06;100.00;97575.38;5073977;28;20585;-76
2022/01/04 06:08:45;;;;;;;5.22;4.13;;;;;;;11.18;100.00;97567.16;5073284;28;20189;-76
2022/01/04 06:11:30;;;;;;;4.95;4.55;;;;;;;11.11;100.00;97561.50;5073788;28;20243;-76
2022/01/04 06:16:52;;;;;;;4.80;4.40;;;;;;;11.19;100.00;97558.06;5031316;28;20285;-76
2022/01/04 06:19:20;;;;;;;5.00;4.50;;;;;;;11.16;100.00;97551.13;5062827;28;20833;-76
2022/01/04 06:21:46;;;;;;;4.57;4.07;;;;;;;11.17;100.00;97546.59;5072976;28;20208;-76
2022/01/04 06:24:13;;;;;;;5.57;4.03;;;;;;;11.10;100.00;97550.84;5072917;28;20189;-77
2022/01/04 06:26:40;;;;;;;4.53;3.90;;;;;;;11.13;100.00;97545.22;5073105;28;20201;-76
2022/01/04 06:29:08;;;;;;;5.72;4.07;;;;;;;11.14;100.00;97546.88;5072857;28;20216;-75
2022/01/04 06:31:35;;;;;;;4.30;3.45;;;;;;;11.10;100.00;97532.00;5073062;28;20309;-75
2022/01/04 06:34:02;;;;;;;4.50;4.10;;;;;;;11.07;100.00;97536.69;5062815;28;20194;-76
2022/01/04 06:36:30;;;;;;;4.88;4.43;;;;;;;11.07;100.00;97531.28;5052810;28;20217;-76
2022/01/04 06:38:56;;;;;;;4.53;4.13;;;;;;;11.14;100.00;97518.09;5070340;28;20267;-76
2022/01/04 06:41:23;;;;;;;5.05;4.65;;;;;;;11.05;100.00;97517.13;5093408;28;20326;-76
2022/01/04 06:43:50;;;;;;;5.80;5.25;;;;;;;11.16;100.00;97512.59;5086912;28;20198;-77
2022/01/04 06:46:16;;;;;;;4.60;4.20;;;;;;;11.17;100.00;97506.19;5076786;28;20181;-76
2022/01/04 06:48:43;;;;;;;5.00;4.60;;;;;;;11.15;100.00;97511.75;5092559;28;20267;-76
2022/01/04 06:51:11;;;;;;;4.30;3.90;;;;;;;11.16;100.00;97496.44;5086445;28;20217;-77
2022/01/04 06:53:39;;;;;;;4.18;3.88;;;;;;;11.12;100.00;97503.09;5052894;28;20532;-76
2022/01/04 06:56:06;;;;;;;5.15;4.65;;;;;;;11.07;100.00;97495.44;5056864;28;20197;-76
2022/01/04 06:58:32;;;;;;;4.80;4.40;;;;;;;11.18;100.00;97505.22;5057121;28;20609;-76
2022/01/04 07:00:59;;;;;;;4.53;4.13;;;;;;;11.11;100.00;97493.31;5052658;28;20642;-75
2022/01/04 07:03:26;;;;;;;5.57;4.93;;;;;;;11.21;100.00;97507.63;5052338;28;20231;-75
2022/01/04 07:05:53;;;;;;;5.80;4.25;;;;;;;11.13;100.00;97497.56;5052243;28;20198;-76
2022/01/04 07:08:19;;;;;;;4.20;3.80;;;;;;;11.12;100.00;97490.47;5059577;28;20320;-75
2022/01/04 07:10:47;;;;;;;4.38;3.78;;;;;;;11.00;100.00;97486.25;5053835;28;20244;-75
2022/01/04 07:13:14;;;;;;;7.20;4.85;;;;;;;11.00;100.00;97492.47;5062928;28;20201;-75
2022/01/04 07:15:41;;;;;;;4.25;3.90;;;;;;;11.04;100.00;97493.06;5069331;28;20218;-76
2022/01/04 07:18:07;;;;;;;5.45;4.32;;;;;;;11.03;100.00;97486.81;5072513;28;20191;-76
2022/01/04 07:20:34;;;;;;;4.93;3.92;;;;;;;11.03;100.00;97483.25;5072483;28;20621;-76
2022/01/04 07:23:00;;;;;;;4.95;3.95;;;;;;;11.05;100.00;97483.97;5072679;28;20200;-75
2022/01/04 07:25:28;;;;;;;4.50;4.10;;;;;;;11.03;100.00;97480.56;5072452;28;20283;-76
2022/01/04 07:27:56;;;;;;;4.10;3.70;;;;;;;11.09;100.00;97477.31;5072341;28;20243;-76
2022/01/04 07:30:22;;;;;;;4.05;3.15;;;;;;;11.07;100.00;97477.44;5072393;28;20208;-76
2022/01/04 07:32:49;;;;;;;6.47;4.30;;;;;;;11.09;100.00;97471.06;5070424;28;20209;-75
2022/01/04 07:35:16;;;;;;;4.43;4.03;;;;;;;11.11;100.00;97477.16;5052471;28;20564;-75
2022/01/04 07:37:43;;;;;;;5.25;4.50;;;;;;;10.98;100.00;97456.75;5052369;28;20182;-75
2022/01/04 07:40:10;;;;;;;4.68;3.85;;;;;;;11.05;100.00;97448.97;5052206;28;20193;-75
2022/01/04 07:42:37;;;;;;;4.10;3.70;;;;;;;11.10;100.00;97435.06;5052063;28;20628;-75
2022/01/04 07:45:05;;;;;;;5.18;4.28;;;;;;;11.19;100.00;97439.56;5083075;28;20275;-76
2022/01/04 07:47:32;;;;;;;4.80;4.28;;;;;;;11.17;100.00;97431.66;5059173;28;20230;-76
2022/01/04 07:49:59;;;;;;;4.20;3.80;;;;;;;11.16;100.00;97426.41;5051995;28;20186;-75
2022/01/04 07:52:25;;;;;;;4.50;3.70;;;;;;;11.30;100.00;97427.78;5055127;28;20699;-73
2022/01/04 07:54:53;;;;;;;4.88;3.70;;;;;;;11.22;100.00;97420.44;5056381;28;20312;-74
2022/01/04 07:57:20;;;;;;;4.00;3.60;;;;;;;11.19;100.00;97420.72;5075922;28;20209;-73
2022/01/04 07:59:47;;;;;;;4.60;3.70;;;;;;;11.19;100.00;97410.81;5075841;28;20229;-74
2022/01/04 08:02:15;;;;;;;3.78;3.33;;;;;;;11.30;100.00;97414.31;5065717;28;20201;-73
2022/01/04 08:04:41;;;;;;;3.92;3.55;;;;;;;11.34;100.00;97408.47;5055290;28;20224;-73
2022/01/04 08:07:14;;;;;;;4.38;3.50;;;;;;;11.35;100.00;97410.19;5055606;28;20209;-75
2022/01/04 08:09:41;;;;;;;5.05;4.13;;;;;;;11.36;100.00;97406.50;5086853;28;20650;-73
2022/01/04 08:12:09;;;;;;;3.95;3.55;;;;;;;11.40;100.00;97399.81;5075587;28;20312;-73
2022/01/04 08:14:36;;;;;;;4.43;3.25;;;;;;;11.25;100.00;97393.19;5075545;28;20240;-73
2022/01/04 08:17:03;;;;;;;5.35;3.25;;;;;;;11.21;100.00;97405.25;5074858;28;20201;-74
2022/01/04 08:19:31;;;;;;;3.85;3.38;;;;;;;11.23;100.00;97396.03;5075109;28;20186;-73
2022/01/04 08:21:58;;;;;;;5.10;4.28;;;;;;;11.26;100.00;97393.06;5072291;28;20236;-74
2022/01/04 08:24:24;;;;;;;4.63;4.22;;;;;;;11.37;100.00;97392.00;5060058;28;20241;-74
2022/01/04 08:26:51;;;;;;;3.90;2.90;;;;;;;11.34;100.00;97391.47;5055058;28;20309;-75
2022/01/04 08:29:18;;;;;;;7.00;3.67;;;;;;;11.22;100.00;97390.81;5060437;28;20551;-74
2022/01/04 08:31:44;;;;;;;3.30;3.00;;;;;;;11.33;100.00;97401.41;5075973;28;20280;-74
2022/01/04 08:34:11;;;;;;;4.25;3.85;;;;;;;11.31;100.00;97407.94;5074409;28;20207;-74
2022/01/04 08:36:39;;;;;;;8.65;6.00;;;;;;;11.31;100.00;97389.94;5073789;28;20217;-73
2022/01/04 08:39:08;;;;;;;4.22;3.70;;;;;;;11.36;100.00;97379.56;5070432;28;20616;-74
2022/01/04 08:41:36;;;;;;;4.30;3.90;;;;;;;11.31;100.00;97379.16;5055175;28;20190;-73
2022/01/04 08:44:03;;;;;;;4.53;4.10;;;;;;;11.37;100.00;97381.22;5054802;28;20704;-74
2022/01/04 08:46:30;;;;;;;4.68;4.20;;;;;;;11.31;100.00;97370.22;5054568;28;20193;-73
2022/01/04 08:49:12;;;;;;;5.07;4.20;;;;;;;11.20;100.00;97379.34;5068542;28;20303;-73
2022/01/04 08:51:40;;;;;;;5.57;4.78;;;;;;;11.11;100.00;97358.69;5012776;28;20286;-74
2022/01/04 08:54:06;;;;;;;7.10;5.13;;;;;;;11.20;100.00;97379.34;5012871;28;20664;-74
2022/01/04 08:56:34;;;;;;;6.80;4.90;;;;;;;11.24;100.00;97367.28;5012061;28;20227;-73
2022/01/04 08:59:03;;;;;;;4.63;4.13;;;;;;;11.25;100.00;97369.81;5012442;28;20257;-73
2022/01/04 09:01:30;;;;;;;5.00;3.85;;;;;;;11.32;100.00;97386.22;5012638;28;20258;-73
2022/01/04 09:03:58;;;;;;;5.68;3.80;;;;;;;11.26;100.00;97389.50;4999077;28;20243;-73
2022/01/04 09:06:25;;;;;;;3.97;3.67;;;;;;;11.30;100.00;97369.34;4992369;28;20231;-72
2022/01/04 09:08:55;;;;;;;7.82;5.32;;;;;;;11.32;100.00;97366.53;5006969;28;20203;-73
2022/01/04 09:11:22;;;;;;;5.13;4.43;;;;;;;11.30;100.00;97363.97;5011752;28;20191;-73
2022/01/04 09:13:49;;;;;;;5.65;3.80;;;;;;;11.26;100.00;97373.34;5012380;28;20649;-74
2022/01/04 09:19:00;;;;;;;5.22;4.20;;;;;;;11.31;100.00;97367.53;5002454;28;20202;-75
2022/01/04 09:21:28;;;;;;;5.35;4.78;;;;;;;11.29;100.00;97372.22;5005925;28;20205;-74
2022/01/04 09:23:59;;;;;;;6.40;3.90;;;;;;;11.30;100.00;97363.97;5002132;28;20200;-74
2022/01/04 09:26:27;;;;;;;4.32;3.75;;;;;;;11.26;100.00;97376.03;5000462;28;20186;-74
2022/01/04 09:28:54;;;;;;;7.70;3.88;;;;;;;11.29;100.00;97374.91;5044000;28;20231;-74
2022/01/04 09:31:22;;;;;;;6.40;4.00;;;;;;;11.33;100.00;97377.16;5073762;28;20224;-73
2022/01/04 09:33:50;;;;;;;6.30;3.50;;;;;;;11.37;100.00;97370.47;5072968;28;20201;-74
2022/01/04 09:36:16;;;;;;;4.45;3.05;;;;;;;11.43;100.00;97387.88;5073699;28;20205;-75
2022/01/04 09:38:43;;;;;;;3.95;3.55;;;;;;;11.34;100.00;97383.38;5073359;28;20197;-74
2022/01/04 09:41:11;;;;;;;4.55;4.10;;;;;;;11.40;100.00;97380.97;5073058;28;20190;-73
2022/01/04 09:43:38;;;;;;;4.03;3.58;;;;;;;11.43;100.00;97380.66;5072609;28;20196;-73
2022/01/04 09:46:05;;;;;;;3.60;3.30;;;;;;;11.39;100.00;97381.94;5073084;28;20204;-73
2022/01/04 09:48:31;;;;;;;4.93;3.38;;;;;;;11.43;100.00;97385.19;5072848;28;20755;-75
2022/01/04 09:50:59;;;;;;;3.83;3.53;;;;;;;11.44;100.00;97385.06;5073877;28;20268;-74
2022/01/04 09:53:26;;;;;;;4.53;3.60;;;;;;;11.39;100.00;97387.31;5072981;28;20260;-73
2022/01/04 09:55:55;;;;;;;3.72;3.13;;;;;;;11.35;100.00;97409.31;5062576;28;20266;-73
2022/01/04 09:58:27;;;;;;;4.30;3.30;;;;;;;11.12;100.00;97412.38;5053642;28;20613;-73
2022/01/04 10:00:54;;;;;;;9.43;3.83;;;;;;;10.99;100.00;97412.72;5053129;28;20281;-74
2022/01/04 10:03:26;;;;;;;4.80;3.25;;;;;;;10.87;100.00;97415.69;5055426;28;20201;-74
2022/01/04 10:06:01;;;;;;;5.78;4.50;;;;;;;10.70;100.00;97419.97;5073077;28;20185;-73
2022/01/04 10:08:28;;;;;;;4.93;4.20;;;;;;;10.58;100.00;97424.63;5066658;28;20243;-74
2022/01/04 10:11:02;;;;;;;5.50;4.45;;;;;;;10.34;100.00;97425.91;5066642;28;20296;-73
2022/01/04 10:13:31;;;;;;;4.13;3.05;;;;;;;10.17;100.00;97432.78;5072318;28;20201;-74
2022/01/04 10:15:59;;;;;;;3.30;2.95;;;;;;;10.09;100.00;97439.88;5073351;28;20646;-73
2022/01/04 10:18:28;;;;;;;2.80;2.38;;;;;;;9.77;100.00;97449.84;5073718;28;20209;-74
2022/01/04 10:21:13;;;;;;;2.30;1.50;;;;;;;9.44;100.00;97461.72;5073063;28;20277;-74
2022/01/04 10:23:48;;;;;;;1.98;1.50;;;;;;;9.12;100.00;97464.53;5073172;28;20660;-75
2022/01/04 10:26:16;;;;;;;1.50;1.20;;;;;;;8.88;100.00;97468.31;5072801;28;20216;-74
2022/01/04 10:28:46;;;;;;;2.45;1.58;;;;;;;9.05;100.00;97464.19;5062365;28;20576;-74
2022/01/04 10:31:16;;;;;;;3.05;1.40;;;;;;;8.74;100.00;97465.94;5052949;28;20663;-73
2022/01/04 10:33:43;;;;;;;1.70;1.40;;;;;;;8.80;100.00;97465.44;5052822;28;20619;-74
2022/01/04 10:36:12;;;;;;;1.40;1.20;;;;;;;8.76;100.00;97475.56;5068690;28;20263;-74
2022/01/04 10:38:40;;;;;;;1.52;1.42;;;;;;;8.79;100.00;97473.63;5073028;28;20193;-73
2022/01/04 10:41:09;;;;;;;2.05;1.77;;;;;;;8.66;100.00;97480.03;5072673;28;20232;-74
2022/01/04 10:43:39;;;;;;;2.53;2.10;;;;;;;8.77;100.00;97476.41;5072122;28;20203;-74
2022/01/04 10:46:09;;;;;;;2.55;2.28;;;;;;;8.74;100.00;97493.63;5071816;28;20235;-75
2022/01/04 10:48:41;;;;;;;5.95;1.88;;;;;;;8.71;100.00;97490.38;5051805;28;20589;-74
2022/01/04 10:51:10;;;;;;;1.75;1.35;;;;;;;8.59;100.00;97499.44;5060882;28;20185;-74
2022/01/04 10:53:39;;;;;;;2.30;1.42;;;;;;;8.67;100.00;97502.34;5066491;28;20197;-74
2022/01/04 10:56:08;;;;;;;2.35;1.40;;;;;;;8.82;100.00;97506.41;5067613;28;20311;-74
2022/01/04 10:58:37;;;;;;;4.18;1.00;;;;;;;8.67;100.00;97511.22;5052682;28;20212;-74
2022/01/04 11:01:07;;;;;;;1.20;0.80;;;;;;;8.49;100.00;97527.00;5052951;28;20300;-74
2022/01/04 11:03:37;;;;;;;1.88;1.33;;;;;;;8.47;100.00;97520.94;5052773;28;20190;-74
2022/01/04 11:06:10;;;;;;;1.40;1.30;;;;;;;8.39;100.00;97542.13;5052837;28;20200;-74
2022/01/04 11:08:38;;;;;;;3.75;1.20;;;;;;;8.29;100.00;97547.38;5053069;28;20192;-74
2022/01/04 11:11:05;;;;;;;1.60;1.00;;;;;;;8.29;100.00;97551.91;5053271;28;20203;-74
2022/01/04 11:13:32;;;;;;;1.58;1.10;;;;;;;8.45;100.00;97556.91;5052907;28;20204;-75
2022/01/04 11:16:00;;;;;;;1.65;0.90;;;;;;;8.29;100.00;97565.31;5052857;28;20256;-74
2022/01/04 11:18:27;;;;;;;1.50;1.13;;;;;;;8.17;100.00;97558.28;5053065;28;20720;-74
2022/01/04 11:20:56;;;;;;;1.35;0.90;;;;;;;8.24;100.00;97568.34;5052958;28;20193;-74
2022/01/04 11:23:28;;;;;;;1.80;1.20;;;;;;;8.14;100.00;97567.41;5052579;28;20198;-75
2022/01/04 11:25:55;;;;;;;1.10;0.90;;;;;;;8.07;100.00;97577.78;5055338;28;20518;-74
2022/01/04 11:28:24;;;;;;;1.70;1.17;;;;;;;8.34;100.00;97579.19;5057031;28;20203;-75
2022/01/04 11:31:27;;;;;;;1.10;0.80;;;;;;;8.09;100.00;97577.63;5056377;28;20208;-74
2022/01/04 11:34:10;;;;;;;1.38;1.00;;;;;;;8.10;100.00;97600.78;5052704;28;20633;-74
2022/01/04 11:36:41;;;;;;;1.20;0.90;;;;;;;7.96;100.00;97582.25;5056687;28;20253;-74